createdAt,value
2018-11-26T00:00:44.407Z,94.51
2018-11-26T00:01:44.429Z,94.23
2018-11-26T00:02:44.447Z,94.18
2018-11-26T00:03:44.474Z,94.65
2018-11-26T00:04:44.489Z,94.51
2018-11-26T00:05:44.517Z,94.98
2018-11-26T00:06:44.530Z,94.46
2018-11-26T00:07:44.554Z,94.93
2018-11-26T00:08:44.671Z,94.74
2018-11-26T00:09:45.063Z,94.84
2018-11-26T00:10:44.709Z,94.93
2018-11-26T00:11:44.816Z,94.74
2018-11-26T00:12:44.818Z,94.93
2018-11-26T00:13:45.029Z,94.65
2018-11-26T00:14:44.843Z,94.74
2018-11-26T00:15:44.846Z,94.65
2018-11-26T00:16:44.954Z,95.03
2018-11-26T00:17:44.850Z,94.18
2018-11-26T00:18:44.778Z,94.74
2018-11-26T00:19:44.882Z,94.84
2018-11-26T00:20:44.856Z,94.56
2018-11-26T00:21:44.872Z,95.03
2018-11-26T00:22:44.876Z,94.56
2018-11-26T00:23:44.887Z,95.03
2018-11-26T00:24:45.003Z,94.65
2018-11-26T00:25:45.012Z,94.65
2018-11-26T00:26:45.009Z,95.03
2018-11-26T00:27:45.023Z,94.93
2018-11-26T00:28:45.135Z,95.03
2018-11-26T00:29:45.041Z,94.93
2018-11-26T00:30:45.001Z,94.93
2018-11-26T00:31:45.011Z,94.46
2018-11-26T00:32:45.061Z,94.93
2018-11-26T00:33:45.057Z,94.93
2018-11-26T00:34:45.177Z,95.03
2018-11-26T00:35:45.164Z,94.74
2018-11-26T00:36:45.183Z,94.74
2018-11-26T00:37:45.133Z,94.46
2018-11-26T00:38:45.447Z,94.37
2018-11-26T00:39:45.171Z,94.84
2018-11-26T00:40:45.417Z,94.56
2018-11-26T00:41:45.318Z,94.56
2018-11-26T00:42:45.383Z,95.03
2018-11-26T00:43:45.258Z,94.27
2018-11-26T00:44:45.461Z,94.27
2018-11-26T00:45:45.546Z,94.18
2018-11-26T00:46:45.409Z,94.08
2018-11-26T00:47:45.350Z,94.37
2018-11-26T00:48:45.575Z,93.89
2018-11-26T00:49:45.477Z,93.89
2018-11-26T00:50:45.484Z,94.46
2018-11-26T00:51:45.407Z,94.37
2018-11-26T00:52:45.603Z,94.37
2018-11-26T00:53:45.704Z,94.18
2018-11-26T00:54:45.463Z,93.80
2018-11-26T00:55:45.480Z,93.99
2018-11-26T00:56:46.807Z,94.46
2018-11-26T00:57:45.710Z,94.27
2018-11-26T00:58:45.705Z,93.89
2018-11-26T00:59:45.650Z,93.80
2018-11-26T01:00:45.841Z,93.99
2018-11-26T01:01:45.822Z,93.89
2018-11-26T01:02:46.055Z,93.51
2018-11-26T01:03:45.755Z,93.65
2018-11-26T01:04:45.653Z,93.32
2018-11-26T01:06:46.099Z,94.37
2018-11-26T01:07:45.738Z,93.56
2018-11-26T01:08:45.826Z,93.46
2018-11-26T01:09:45.747Z,94.04
2018-11-26T01:10:45.777Z,93.99
2018-11-26T01:11:46.141Z,93.65
2018-11-26T01:12:45.826Z,93.46
2018-11-26T01:13:45.826Z,92.99
2018-11-26T01:14:46.222Z,93.37
2018-11-26T01:15:46.098Z,93.65
2018-11-26T01:16:46.264Z,93.27
2018-11-26T01:17:46.168Z,93.46
2018-11-26T01:18:45.958Z,92.99
2018-11-26T01:19:46.582Z,93.27
2018-11-26T01:20:46.203Z,93.27
2018-11-26T01:21:46.095Z,92.99
2018-11-26T01:22:46.200Z,93.08
2018-11-26T01:23:46.382Z,92.80
2018-11-26T01:24:46.212Z,92.80
2018-11-26T01:25:46.238Z,92.99
2018-11-26T01:26:46.306Z,93.18
2018-11-26T01:27:46.329Z,93.56
2018-11-26T01:28:47.054Z,93.08
2018-11-26T01:29:46.244Z,92.99
2018-11-26T01:30:46.243Z,93.37
2018-11-26T01:31:46.274Z,93.18
2018-11-26T01:32:46.400Z,93.18
2018-11-26T01:33:46.359Z,93.08
2018-11-26T01:34:46.302Z,93.18
2018-11-26T01:35:46.271Z,93.08
2018-11-26T01:36:46.400Z,92.99
2018-11-26T01:37:46.302Z,93.56
2018-11-26T01:38:46.303Z,93.27
2018-11-26T01:39:46.724Z,93.37
2018-11-26T01:40:46.433Z,92.99
2018-11-26T01:41:46.427Z,93.37
2018-11-26T01:42:46.542Z,92.99
2018-11-26T01:43:46.415Z,93.18
2018-11-26T01:44:46.545Z,93.37
2018-11-26T01:45:46.573Z,93.27
2018-11-26T01:46:46.668Z,93.08
2018-11-26T01:47:46.509Z,93.56
2018-11-26T01:48:46.494Z,93.27
2018-11-26T01:49:46.520Z,92.99
2018-11-26T01:50:46.534Z,93.27
2018-11-26T01:51:46.558Z,93.46
2018-11-26T01:52:46.573Z,93.56
2018-11-26T01:53:46.617Z,93.46
2018-11-26T01:54:46.614Z,92.99
2018-11-26T01:55:46.628Z,93.08
2018-11-26T01:56:46.644Z,92.90
2018-11-26T01:57:46.670Z,93.27
2018-11-26T01:58:46.721Z,92.99
2018-11-26T01:59:46.697Z,93.18
2018-11-26T02:00:46.749Z,93.08
2018-11-26T02:01:46.743Z,92.99
2018-11-26T02:02:46.762Z,93.08
2018-11-26T02:03:46.778Z,93.75
2018-11-26T02:04:46.800Z,93.27
2018-11-26T02:05:46.817Z,93.46
2018-11-26T02:06:46.840Z,93.75
2018-11-26T02:07:46.862Z,93.27
2018-11-26T02:08:46.889Z,93.18
2018-11-26T02:09:46.921Z,93.56
2018-11-26T02:10:46.912Z,93.37
2018-11-26T02:11:46.937Z,92.80
2018-11-26T02:12:46.956Z,92.80
2018-11-26T02:13:47.005Z,92.42
2018-11-26T02:14:46.989Z,93.18
2018-11-26T02:15:47.013Z,92.80
2018-11-26T02:16:47.033Z,92.99
2018-11-26T02:17:47.064Z,92.99
2018-11-26T02:18:47.074Z,92.80
2018-11-26T02:19:47.092Z,92.80
2018-11-26T02:20:47.103Z,92.99
2018-11-26T02:21:47.120Z,92.90
2018-11-26T02:22:47.136Z,92.42
2018-11-26T02:23:47.157Z,92.52
2018-11-26T02:24:47.190Z,92.61
2018-11-26T02:25:47.233Z,92.80
2018-11-26T02:26:47.234Z,93.18
2018-11-26T02:27:47.244Z,92.61
2018-11-26T02:28:47.258Z,92.80
2018-11-26T02:29:47.272Z,93.37
2018-11-26T02:30:47.289Z,93.18
2018-11-26T02:31:47.311Z,92.99
2018-11-26T02:32:47.338Z,92.42
2018-11-26T02:33:47.377Z,93.27
2018-11-26T02:34:47.388Z,92.99
2018-11-26T02:35:47.417Z,92.90
2018-11-26T02:36:47.418Z,92.99
2018-11-26T02:37:47.427Z,92.99
2018-11-26T02:38:47.448Z,93.27
2018-11-26T02:39:47.463Z,93.46
2018-11-26T02:40:47.480Z,92.99
2018-11-26T02:41:47.500Z,93.27
2018-11-26T02:42:47.535Z,92.99
2018-11-26T02:43:47.561Z,92.90
2018-11-26T02:44:47.566Z,92.99
2018-11-26T02:45:47.580Z,93.08
2018-11-26T02:46:47.601Z,92.99
2018-11-26T02:47:47.609Z,92.99
2018-11-26T02:48:47.630Z,92.90
2018-11-26T02:49:47.664Z,92.99
2018-11-26T02:50:47.690Z,93.37
2018-11-26T02:51:47.706Z,93.27
2018-11-26T02:52:47.713Z,93.08
2018-11-26T02:53:47.730Z,92.90
2018-11-26T02:54:47.744Z,93.18
2018-11-26T02:55:47.764Z,92.99
2018-11-26T02:56:47.783Z,92.90
2018-11-26T02:57:47.799Z,93.46
2018-11-26T02:58:47.825Z,93.08
2018-11-26T02:59:47.854Z,93.18
2018-11-26T03:00:47.867Z,93.18
2018-11-26T03:01:47.879Z,93.27
2018-11-26T03:02:47.903Z,93.08
2018-11-26T03:03:47.910Z,93.08
2018-11-26T03:04:47.927Z,93.46
2018-11-26T03:05:47.948Z,93.18
2018-11-26T03:06:47.966Z,93.08
2018-11-26T03:07:47.987Z,93.46
2018-11-26T03:08:48.015Z,93.37
2018-11-26T03:09:48.032Z,93.61
2018-11-26T03:10:48.047Z,93.94
2018-11-26T03:11:48.058Z,94.13
2018-11-26T03:12:48.077Z,93.89
2018-11-26T03:13:48.093Z,93.80
2018-11-26T03:14:48.115Z,93.80
2018-11-26T03:15:48.131Z,93.89
2018-11-26T03:16:48.174Z,94.04
2018-11-26T03:17:48.192Z,93.94
2018-11-26T03:18:48.200Z,93.89
2018-11-26T03:19:48.220Z,93.89
2018-11-26T03:20:48.236Z,93.80
2018-11-26T03:21:48.268Z,94.13
2018-11-26T03:22:48.272Z,94.84
2018-11-26T03:23:48.279Z,94.93
2018-11-26T03:24:48.311Z,94.37
2018-11-26T03:25:48.332Z,94.74
2018-11-26T03:26:48.355Z,94.56
2018-11-26T03:27:48.367Z,94.84
2018-11-26T03:28:48.374Z,94.56
2018-11-26T03:29:48.422Z,94.56
2018-11-26T03:30:48.426Z,94.84
2018-11-26T03:31:48.432Z,94.84
2018-11-26T03:32:48.448Z,94.93
2018-11-26T03:33:48.482Z,94.84
2018-11-26T03:34:48.513Z,94.37
2018-11-26T03:35:48.527Z,94.46
2018-11-26T03:36:48.529Z,94.79
2018-11-26T03:37:48.550Z,94.60
2018-11-26T03:38:48.564Z,94.79
2018-11-26T03:39:48.583Z,94.37
2018-11-26T03:40:48.597Z,94.46
2018-11-26T03:41:48.623Z,94.98
2018-11-26T03:42:48.661Z,94.84
2018-11-26T03:43:48.695Z,94.93
2018-11-26T03:44:48.683Z,94.27
2018-11-26T03:45:48.695Z,94.27
2018-11-26T03:46:48.709Z,94.37
2018-11-26T03:47:48.729Z,94.70
2018-11-26T03:48:48.745Z,94.46
2018-11-26T03:49:48.778Z,94.51
2018-11-26T03:50:48.796Z,94.18
2018-11-26T03:51:48.804Z,94.18
2018-11-26T03:52:48.836Z,94.08
2018-11-26T03:53:48.862Z,94.84
2018-11-26T03:54:48.864Z,94.56
2018-11-26T03:55:48.880Z,94.79
2018-11-26T03:56:48.912Z,94.79
2018-11-26T03:57:48.928Z,94.56
2018-11-26T03:58:48.931Z,94.98
2018-11-26T03:59:48.962Z,94.18
2018-11-26T04:00:48.999Z,94.74
2018-11-26T04:01:49.006Z,94.74
2018-11-26T04:02:49.016Z,94.56
2018-11-26T04:03:49.034Z,94.65
2018-11-26T04:04:49.044Z,94.32
2018-11-26T04:05:49.062Z,94.37
2018-11-26T04:06:49.078Z,94.93
2018-11-26T04:07:49.107Z,94.84
2018-11-26T04:08:49.120Z,94.65
2018-11-26T04:09:49.147Z,94.74
2018-11-26T04:10:49.168Z,94.65
2018-11-26T04:11:49.179Z,94.70
2018-11-26T04:12:49.203Z,94.37
2018-11-26T04:13:49.215Z,94.74
2018-11-26T04:14:49.237Z,94.51
2018-11-26T04:15:49.265Z,94.56
2018-11-26T04:16:49.272Z,94.60
2018-11-26T04:17:49.301Z,94.79
2018-11-26T04:18:49.318Z,94.89
2018-11-26T04:19:49.335Z,94.60
2018-11-26T04:20:49.350Z,94.13
2018-11-26T04:21:49.361Z,94.23
2018-11-26T04:22:49.381Z,94.42
2018-11-26T04:23:49.395Z,94.42
2018-11-26T04:24:49.421Z,94.42
2018-11-26T04:25:49.434Z,94.89
2018-11-26T04:26:49.460Z,94.98
2018-11-26T04:27:49.483Z,94.89
2018-11-26T04:28:49.496Z,94.23
2018-11-26T04:29:49.520Z,94.13
2018-11-26T04:30:49.530Z,93.94
2018-11-26T04:31:49.552Z,93.75
2018-11-26T04:32:49.574Z,94.04
2018-11-26T04:33:49.584Z,93.94
2018-11-26T04:34:49.611Z,93.84
2018-11-26T04:35:49.624Z,93.94
2018-11-26T04:36:49.647Z,94.32
2018-11-26T04:37:49.670Z,93.84
2018-11-26T04:38:49.681Z,94.04
2018-11-26T04:39:49.701Z,94.04
2018-11-26T04:40:49.722Z,93.94
2018-11-26T04:41:49.741Z,94.04
2018-11-26T04:42:49.754Z,94.04
2018-11-26T04:43:49.779Z,93.56
2018-11-26T04:44:49.805Z,93.75
2018-11-26T04:45:49.831Z,93.56
2018-11-26T04:46:49.833Z,93.65
2018-11-26T04:47:49.851Z,93.18
2018-11-26T04:48:49.888Z,93.18
2018-11-26T04:49:49.898Z,93.37
2018-11-26T04:50:49.933Z,92.99
2018-11-26T04:51:49.939Z,93.37
2018-11-26T04:52:49.951Z,92.80
2018-11-26T04:53:49.978Z,92.80
2018-11-26T04:54:49.987Z,93.18
2018-11-26T04:55:49.995Z,92.61
2018-11-26T04:56:50.016Z,92.80
2018-11-26T04:57:50.043Z,93.18
2018-11-26T04:58:50.056Z,92.99
2018-11-26T04:59:50.072Z,92.99
2018-11-26T05:00:50.094Z,92.52
2018-11-26T05:01:50.109Z,92.80
2018-11-26T05:02:50.123Z,92.42
2018-11-26T05:03:50.151Z,93.18
2018-11-26T05:04:50.175Z,93.37
2018-11-26T05:05:50.190Z,93.18
2018-11-26T05:06:50.210Z,92.52
2018-11-26T05:07:50.221Z,93.18
2018-11-26T05:08:50.235Z,93.18
2018-11-26T05:09:50.264Z,92.90
2018-11-26T05:10:51.213Z,92.71
2018-11-26T05:11:50.308Z,92.71
2018-11-26T05:12:50.319Z,93.18
2018-11-26T05:13:50.359Z,93.18
2018-11-26T05:14:50.355Z,92.71
2018-11-26T05:15:50.383Z,92.80
2018-11-26T05:16:50.393Z,93.46
2018-11-26T05:17:50.413Z,92.61
2018-11-26T05:18:50.430Z,92.71
2018-11-26T05:19:50.447Z,92.71
2018-11-26T05:20:50.463Z,92.71
2018-11-26T05:21:50.481Z,92.80
2018-11-26T05:22:50.514Z,92.80
2018-11-26T05:23:50.547Z,92.80
2018-11-26T05:24:50.544Z,92.71
2018-11-26T05:25:50.594Z,92.33
2018-11-26T05:26:50.585Z,92.71
2018-11-26T05:27:50.604Z,92.90
2018-11-26T05:28:50.620Z,93.46
2018-11-26T05:29:50.639Z,93.56
2018-11-26T05:30:50.660Z,92.90
2018-11-26T05:31:50.682Z,92.52
2018-11-26T05:32:50.697Z,93.37
2018-11-26T05:33:50.708Z,93.08
2018-11-26T05:34:50.812Z,92.80
2018-11-26T05:35:50.750Z,92.61
2018-11-26T05:36:50.771Z,92.80
2018-11-26T05:37:50.796Z,92.71
2018-11-26T05:38:50.802Z,92.71
2018-11-26T05:39:50.818Z,92.33
2018-11-26T05:40:50.848Z,92.42
2018-11-26T05:41:50.862Z,93.18
2018-11-26T05:42:50.882Z,93.08
2018-11-26T05:43:50.897Z,92.71
2018-11-26T05:44:50.906Z,92.42
2018-11-26T05:45:50.938Z,92.42
2018-11-26T05:46:50.949Z,92.42
2018-11-26T05:47:50.973Z,92.33
2018-11-26T05:48:50.999Z,92.71
2018-11-26T05:49:51.011Z,93.37
2018-11-26T05:50:51.023Z,93.37
2018-11-26T05:51:51.043Z,92.90
2018-11-26T05:52:51.068Z,92.80
2018-11-26T05:53:51.079Z,92.52
2018-11-26T05:54:51.111Z,92.99
2018-11-26T05:55:51.124Z,92.80
2018-11-26T05:56:51.137Z,93.08
2018-11-26T05:57:51.158Z,92.90
2018-11-26T05:58:51.173Z,92.99
2018-11-26T05:59:51.209Z,92.80
2018-11-26T06:00:51.230Z,92.71
2018-11-26T06:01:51.234Z,92.80
2018-11-26T06:02:51.258Z,92.80
2018-11-26T06:03:51.265Z,92.80
2018-11-26T06:04:51.292Z,92.90
2018-11-26T06:05:51.305Z,93.18
2018-11-26T06:06:51.336Z,93.08
2018-11-26T06:07:51.347Z,93.08
2018-11-26T06:08:51.371Z,93.37
2018-11-26T06:09:51.396Z,93.18
2018-11-26T06:10:51.403Z,92.99
2018-11-26T06:11:51.434Z,93.08
2018-11-26T06:12:51.441Z,93.37
2018-11-26T06:13:51.460Z,93.56
2018-11-26T06:14:51.472Z,93.37
2018-11-26T06:15:51.508Z,93.56
2018-11-26T06:16:53.784Z,93.65
2018-11-26T06:17:51.540Z,93.75
2018-11-26T06:18:51.555Z,93.08
2018-11-26T06:19:51.587Z,93.18
2018-11-26T06:20:51.607Z,93.75
2018-11-26T06:21:51.655Z,93.46
2018-11-26T06:22:51.623Z,93.18
2018-11-26T06:23:51.678Z,93.18
2018-11-26T06:24:51.679Z,93.46
2018-11-26T06:25:51.686Z,93.46
2018-11-26T06:26:52.046Z,93.75
2018-11-26T06:27:51.729Z,94.04
2018-11-26T06:28:51.746Z,93.94
2018-11-26T06:29:51.768Z,93.94
2018-11-26T06:30:51.777Z,93.75
2018-11-26T06:31:51.847Z,94.04
2018-11-26T06:32:51.838Z,93.65
2018-11-26T06:33:51.840Z,93.94
2018-11-26T06:34:51.858Z,94.32
2018-11-26T06:35:51.886Z,94.42
2018-11-26T06:36:51.906Z,94.32
2018-11-26T06:37:51.916Z,94.42
2018-11-26T06:38:51.943Z,94.04
2018-11-26T06:39:51.946Z,94.32
2018-11-26T06:40:51.974Z,94.32
2018-11-26T06:41:52.011Z,94.42
2018-11-26T06:42:52.023Z,94.04
2018-11-26T06:43:52.024Z,94.23
2018-11-26T06:44:52.046Z,94.42
2018-11-26T06:45:52.136Z,94.32
2018-11-26T06:46:52.105Z,94.13
2018-11-26T06:47:52.101Z,94.13
2018-11-26T06:48:52.129Z,94.13
2018-11-26T06:49:52.152Z,94.42
2018-11-26T06:50:52.174Z,94.13
2018-11-26T06:51:52.177Z,94.32
2018-11-26T06:52:52.212Z,94.42
2018-11-26T06:53:52.217Z,94.42
2018-11-26T06:54:52.235Z,94.23
2018-11-26T06:55:52.256Z,94.51
2018-11-26T06:56:52.275Z,94.98
2018-11-26T06:57:52.301Z,94.79
2018-11-26T06:58:52.308Z,94.70
2018-11-26T06:59:52.342Z,94.70
2018-11-26T07:00:52.364Z,94.79
2018-11-26T07:01:52.384Z,94.60
2018-11-26T07:02:52.397Z,94.51
2018-11-26T07:03:52.405Z,94.89
2018-11-26T07:04:52.422Z,94.32
2018-11-26T07:05:52.438Z,94.79
2018-11-26T07:06:52.456Z,94.79
2018-11-26T07:07:52.488Z,94.51
2018-11-26T07:08:52.498Z,95.17
2018-11-26T07:09:52.516Z,95.36
2018-11-26T07:10:52.550Z,95.55
2018-11-26T07:11:52.556Z,94.79
2018-11-26T07:12:52.584Z,94.70
2018-11-26T07:13:52.592Z,95.36
2018-11-26T07:14:52.609Z,95.07
2018-11-26T07:15:52.626Z,95.07
2018-11-26T07:16:52.649Z,94.93
2018-11-26T07:17:52.662Z,95.69
2018-11-26T07:18:52.685Z,95.41
2018-11-26T07:19:52.709Z,95.12
2018-11-26T07:20:52.727Z,94.70
2018-11-26T07:21:52.743Z,94.70
2018-11-26T07:22:52.776Z,94.60
2018-11-26T07:23:52.779Z,94.84
2018-11-26T07:24:52.799Z,95.03
2018-11-26T07:25:52.821Z,94.79
2018-11-26T07:26:52.835Z,94.98
2018-11-26T07:27:52.862Z,94.60
2018-11-26T07:28:52.877Z,94.60
2018-11-26T07:29:52.889Z,94.51
2018-11-26T07:30:52.916Z,94.89
2018-11-26T07:31:52.939Z,94.60
2018-11-26T07:32:52.951Z,94.98
2018-11-26T07:33:52.975Z,94.51
2018-11-26T07:34:52.986Z,94.98
2018-11-26T07:35:53.004Z,94.98
2018-11-26T07:36:53.037Z,94.89
2018-11-26T07:37:53.044Z,94.60
2018-11-26T07:38:53.064Z,94.70
2018-11-26T07:39:53.085Z,94.60
2018-11-26T07:40:53.100Z,94.51
2018-11-26T07:41:53.165Z,94.46
2018-11-26T07:42:53.141Z,94.79
2018-11-26T07:43:53.172Z,94.42
2018-11-26T07:44:53.174Z,94.60
2018-11-26T07:45:53.219Z,94.98
2018-11-26T07:46:53.254Z,94.79
2018-11-26T07:47:53.263Z,94.79
2018-11-26T07:48:53.252Z,94.89
2018-11-26T07:49:53.281Z,94.56
2018-11-26T07:50:53.310Z,94.89
2018-11-26T07:51:53.309Z,95.12
2018-11-26T07:52:53.331Z,95.07
2018-11-26T07:53:53.342Z,94.89
2018-11-26T07:54:53.393Z,94.42
2018-11-26T07:55:53.413Z,95.07
2018-11-26T07:56:54.413Z,94.51
2018-11-26T07:57:53.464Z,95.36
2018-11-26T07:58:53.445Z,95.07
2018-11-26T07:59:53.473Z,95.07
2018-11-26T08:00:53.481Z,94.98
2018-11-26T08:01:53.497Z,95.26
2018-11-26T08:02:53.517Z,94.79
2018-11-26T08:03:53.535Z,94.84
2018-11-26T08:04:53.560Z,94.84
2018-11-26T08:05:53.585Z,94.93
2018-11-26T08:06:53.591Z,94.93
2018-11-26T08:07:53.615Z,95.03
2018-11-26T08:08:53.642Z,95.12
2018-11-26T08:09:53.664Z,94.84
2018-11-26T08:10:53.666Z,94.46
2018-11-26T08:11:53.702Z,94.84
2018-11-26T08:12:53.718Z,94.65
2018-11-26T08:13:53.750Z,94.84
2018-11-26T08:14:53.742Z,94.74
2018-11-26T08:15:53.764Z,95.03
2018-11-26T08:16:53.780Z,94.65
2018-11-26T08:17:53.812Z,94.56
2018-11-26T08:18:53.818Z,94.56
2018-11-26T08:19:53.842Z,94.65
2018-11-26T08:20:53.863Z,94.46
2018-11-26T08:21:53.874Z,94.65
2018-11-26T08:22:53.904Z,94.65
2018-11-26T08:23:53.915Z,94.46
2018-11-26T08:24:53.939Z,94.42
2018-11-26T08:25:53.968Z,94.93
2018-11-26T08:26:53.975Z,94.89
2018-11-26T08:27:53.989Z,94.84
2018-11-26T08:28:54.012Z,95.12
2018-11-26T08:29:54.035Z,95.22
2018-11-26T08:30:54.056Z,95.03
2018-11-26T08:31:54.070Z,94.84
2018-11-26T08:32:54.145Z,94.84
2018-11-26T08:33:54.103Z,95.03
2018-11-26T08:34:54.121Z,94.56
2018-11-26T08:35:54.215Z,94.93
2018-11-26T08:36:54.160Z,94.56
2018-11-26T08:37:54.184Z,94.74
2018-11-26T08:38:54.204Z,94.84
2018-11-26T08:39:54.235Z,95.12
2018-11-26T08:40:54.234Z,95.22
2018-11-26T08:41:54.424Z,95.12
2018-11-26T08:42:54.288Z,94.84
2018-11-26T08:43:54.299Z,94.84
2018-11-26T08:44:54.316Z,94.84
2018-11-26T08:45:54.493Z,94.79
2018-11-26T08:46:54.546Z,95.36
2018-11-26T08:47:54.370Z,95.50
2018-11-26T08:48:54.421Z,95.41
2018-11-26T08:49:54.407Z,95.31
2018-11-26T08:50:54.433Z,94.93
2018-11-26T08:51:54.488Z,95.03
2018-11-26T08:52:54.470Z,95.03
2018-11-26T08:53:54.656Z,94.74
2018-11-26T08:54:54.610Z,94.84
2018-11-26T08:55:54.529Z,95.03
2018-11-26T08:56:54.557Z,95.41
2018-11-26T08:57:54.595Z,95.41
2018-11-26T08:58:54.792Z,95.41
2018-11-26T08:59:54.601Z,94.84
2018-11-26T09:00:54.615Z,95.03
2018-11-26T09:01:54.632Z,94.84
2018-11-26T09:02:54.661Z,95.41
2018-11-26T09:03:54.669Z,95.03
2018-11-26T09:04:55.752Z,95.12
2018-11-26T09:05:54.720Z,94.93
2018-11-26T09:06:54.729Z,94.56
2018-11-26T09:07:54.752Z,94.56
2018-11-26T09:08:54.775Z,94.84
2018-11-26T09:09:54.793Z,94.65
2018-11-26T09:10:54.805Z,94.65
2018-11-26T09:11:54.828Z,94.74
2018-11-26T09:12:54.856Z,94.84
2018-11-26T09:13:54.856Z,94.93
2018-11-26T09:14:54.890Z,94.56
2018-11-26T09:15:54.898Z,94.93
2018-11-26T09:16:54.939Z,94.56
2018-11-26T09:17:54.936Z,94.84
2018-11-26T09:18:54.960Z,94.84
2018-11-26T09:19:54.978Z,95.03
2018-11-26T09:20:55.000Z,94.84
2018-11-26T09:21:55.021Z,94.84
2018-11-26T09:22:55.037Z,94.84
2018-11-26T09:23:55.055Z,94.65
2018-11-26T09:24:55.073Z,94.84
2018-11-26T09:25:55.095Z,94.56
2018-11-26T09:26:55.123Z,94.56
2018-11-26T09:27:55.133Z,94.27
2018-11-26T09:28:55.157Z,95.03
2018-11-26T09:29:55.173Z,95.03
2018-11-26T09:30:55.186Z,94.46
2018-11-26T09:31:55.214Z,94.46
2018-11-26T09:37:04.868Z,94.46
2018-11-26T09:38:04.868Z,94.27
2018-11-26T09:39:58.063Z,94.27
2018-11-26T09:40:58.122Z,94.18
2018-11-26T09:42:51.194Z,94.46
2018-11-26T09:43:51.202Z,94.18
2018-11-26T09:45:44.352Z,94.18
2018-11-26T09:46:44.549Z,94.74
2018-11-26T09:48:37.498Z,94.65
2018-11-26T09:49:37.499Z,94.46
2018-11-26T09:51:30.762Z,94.37
2018-11-26T09:52:30.656Z,94.37
2018-11-26T09:54:26.096Z,93.70
2018-11-26T09:55:23.840Z,93.61
2018-11-26T09:57:16.033Z,93.51
2018-11-26T09:58:16.021Z,93.70
2018-11-26T10:00:08.323Z,93.80
2018-11-26T10:01:08.325Z,93.51
2018-11-26T10:03:01.476Z,93.51
2018-11-26T10:04:01.472Z,93.13
2018-11-26T10:05:54.706Z,93.13
2018-11-26T10:06:54.665Z,93.61
2018-11-26T10:08:47.803Z,93.32
2018-11-26T10:09:47.807Z,93.41
2018-11-26T10:11:40.008Z,93.04
2018-11-26T10:12:40.010Z,92.94
2018-11-26T10:14:33.225Z,93.04
2018-11-26T10:15:33.216Z,93.04
2018-11-26T10:17:26.345Z,93.32
2018-11-26T10:18:26.358Z,93.13
2018-11-26T10:20:19.501Z,93.23
2018-11-26T10:21:19.490Z,93.04
2018-11-26T10:23:12.666Z,93.32
2018-11-26T10:24:12.671Z,92.85
2018-11-26T10:26:05.860Z,92.57
2018-11-26T10:27:05.816Z,93.23
2018-11-26T10:28:58.966Z,92.80
2018-11-26T10:29:58.971Z,92.80
2018-11-26T10:31:52.145Z,92.57
2018-11-26T10:32:52.147Z,92.61
2018-11-26T10:34:45.301Z,92.76
2018-11-26T10:35:45.308Z,92.85
2018-11-26T10:37:37.545Z,92.38
2018-11-26T10:38:37.547Z,92.85
2018-11-26T10:40:29.739Z,92.57
2018-11-26T10:41:29.733Z,92.38
2018-11-26T10:43:22.902Z,92.47
2018-11-26T10:44:22.887Z,92.85
2018-11-26T10:46:16.061Z,92.14
2018-11-26T10:47:16.056Z,91.99
2018-11-26T10:49:09.236Z,91.99
2018-11-26T10:50:09.248Z,92.57
2018-11-26T10:52:01.501Z,92.47
2018-11-26T10:53:01.507Z,92.38
2018-11-26T10:54:54.663Z,92.61
2018-11-26T10:55:54.850Z,92.85
2018-11-26T10:57:47.818Z,92.85
2018-11-26T10:58:47.807Z,92.71
2018-11-26T11:00:40.950Z,91.94
2018-11-26T11:01:40.947Z,92.90
2018-11-26T11:03:34.135Z,92.28
2018-11-26T11:04:34.125Z,92.33
2018-11-26T11:06:27.278Z,92.14
2018-11-26T11:07:27.301Z,91.52
2018-11-26T11:09:20.540Z,91.94
2018-11-26T11:10:20.548Z,92.52
2018-11-26T11:12:13.713Z,92.23
2018-11-26T11:13:13.699Z,91.94
2018-11-26T11:15:06.864Z,91.28
2018-11-26T11:16:06.863Z,91.09
2018-11-26T11:17:59.147Z,91.38
2018-11-26T11:18:59.155Z,91.38
2018-11-26T11:20:51.397Z,91.19
2018-11-26T11:21:51.356Z,91.19
2018-11-26T11:23:44.516Z,90.62
2018-11-26T11:24:44.516Z,90.81
2018-11-26T11:26:37.681Z,89.86
2018-11-26T11:27:37.678Z,90.24
2018-11-26T11:29:30.835Z,89.95
2018-11-26T11:30:30.816Z,90.24
2018-11-26T11:32:23.955Z,90.05
2018-11-26T11:35:16.455Z,90.14
2018-11-26T11:36:16.207Z,89.58
2018-11-26T11:38:08.443Z,90.05
2018-11-26T11:39:08.454Z,89.95
2018-11-26T11:41:00.722Z,89.58
2018-11-26T11:42:00.738Z,89.39
2018-11-26T11:43:53.898Z,89.58
2018-11-26T11:44:53.891Z,89.58
2018-11-26T11:46:47.080Z,89.86
2018-11-26T11:47:47.059Z,89.48
2018-11-26T11:49:40.203Z,89.29
2018-11-26T11:50:40.201Z,89.29
2018-11-26T11:52:32.410Z,89.58
2018-11-26T11:53:32.413Z,89.48
2018-11-26T11:55:25.589Z,89.48
2018-11-26T11:56:25.603Z,89.76
2018-11-26T11:58:17.832Z,90.05
2018-11-26T11:59:17.885Z,89.48
2018-11-26T12:01:11.023Z,89.95
2018-11-26T12:02:14.040Z,89.20
2018-11-26T12:04:04.192Z,88.81
2018-11-26T12:05:04.188Z,89.20
2018-11-26T12:06:57.357Z,88.91
2018-11-26T12:07:57.351Z,89.29
2018-11-26T12:09:50.514Z,89.39
2018-11-26T12:10:50.519Z,89.20
2018-11-26T12:12:43.660Z,89.58
2018-11-26T12:13:43.660Z,89.58
2018-11-26T12:15:36.813Z,89.76
2018-11-26T12:16:36.814Z,90.33
2018-11-26T12:18:29.966Z,89.67
2018-11-26T12:19:29.975Z,89.58
2018-11-26T12:21:22.203Z,90.14
2018-11-26T12:22:22.201Z,90.14
2018-11-26T12:24:14.392Z,90.52
2018-11-26T12:25:14.411Z,90.14
2018-11-26T12:27:20.937Z,89.95
2018-11-26T12:28:20.925Z,90.33
2018-11-26T12:30:13.426Z,89.67
2018-11-26T12:31:13.153Z,89.58
2018-11-26T12:33:05.399Z,89.58
2018-11-26T12:34:05.403Z,89.76
2018-11-26T12:35:57.643Z,89.86
2018-11-26T12:36:57.920Z,90.24
2018-11-26T12:38:49.923Z,88.91
2018-11-26T12:39:49.876Z,89.25
2018-11-26T12:41:42.114Z,88.53
2018-11-26T12:42:42.126Z,88.72
2018-11-26T12:44:35.278Z,88.39
2018-11-26T12:45:35.288Z,88.15
2018-11-26T12:47:27.521Z,88.91
2018-11-26T12:48:27.526Z,88.81
2018-11-26T12:50:19.729Z,88.72
2018-11-26T12:51:19.725Z,88.06
2018-11-26T12:53:12.859Z,88.20
2018-11-26T12:54:12.870Z,88.10
2018-11-26T12:56:06.020Z,88.39
2018-11-26T12:57:06.031Z,87.82
2018-11-26T12:58:59.165Z,88.29
2018-11-26T12:59:59.171Z,88.48
2018-11-26T13:01:51.384Z,87.82
2018-11-26T13:02:51.366Z,88.39
2018-11-26T13:04:43.597Z,87.82
2018-11-26T13:05:43.602Z,88.01
2018-11-26T13:07:35.813Z,88.58
2018-11-26T13:08:35.819Z,88.01
2018-11-26T13:10:28.049Z,88.29
2018-11-26T13:13:20.275Z,88.58
2018-11-26T13:14:20.215Z,87.92
2018-11-26T13:16:12.443Z,88.29
2018-11-26T13:17:12.426Z,88.29
2018-11-26T13:19:04.656Z,88.01
2018-11-26T13:20:04.681Z,88.20
2018-11-26T13:21:56.990Z,87.92
2018-11-26T13:22:56.958Z,88.01
2018-11-26T13:24:50.130Z,88.48
2018-11-26T13:25:50.112Z,88.39
2018-11-26T13:27:43.269Z,87.92
2018-11-26T13:28:43.279Z,88.10
2018-11-26T13:30:35.526Z,88.01
2018-11-26T13:31:35.517Z,88.68
2018-11-26T13:33:27.771Z,87.82
2018-11-26T13:34:27.771Z,87.92
2018-11-26T13:36:19.984Z,88.29
2018-11-26T13:37:20.015Z,87.92
2018-11-26T13:39:12.182Z,88.20
2018-11-26T13:40:12.180Z,88.01
2018-11-26T13:42:04.659Z,88.01
2018-11-26T13:43:04.320Z,88.29
2018-11-26T13:44:56.657Z,88.29
2018-11-26T13:45:56.658Z,88.20
2018-11-26T13:47:49.819Z,88.01
2018-11-26T13:48:49.823Z,88.01
2018-11-26T13:50:42.009Z,88.10
2018-11-26T13:51:41.969Z,88.58
2018-11-26T13:53:34.307Z,89.25
2018-11-26T13:54:34.203Z,89.15
2018-11-26T13:56:39.786Z,88.39
2018-11-26T13:57:39.801Z,88.48
2018-11-26T13:59:31.999Z,88.58
2018-11-26T14:00:31.988Z,88.48
2018-11-26T14:02:24.230Z,88.48
2018-11-26T14:03:24.238Z,88.10
2018-11-26T14:05:16.458Z,88.68
2018-11-26T14:06:16.469Z,88.39
2018-11-26T14:08:19.542Z,88.77
2018-11-26T14:09:19.488Z,88.01
2018-11-26T14:11:11.714Z,88.10
2018-11-26T14:12:11.708Z,88.01
2018-11-26T14:14:03.871Z,88.39
2018-11-26T14:15:03.885Z,88.58
2018-11-26T14:16:56.041Z,89.34
2018-11-26T14:17:56.042Z,88.68
2018-11-26T14:19:48.229Z,88.10
2018-11-26T14:20:48.237Z,88.58
2018-11-26T14:22:40.459Z,89.34
2018-11-26T14:23:40.479Z,89.34
2018-11-26T14:25:32.686Z,89.15
2018-11-26T14:26:32.695Z,88.48
2018-11-26T14:28:24.929Z,88.58
2018-11-26T14:29:24.974Z,88.48